createdAt,value
2019-05-12T00:01:28.646Z,99233.58
2019-05-12T00:04:04.973Z,99234.59
2019-05-12T00:06:40.926Z,99233.88
2019-05-12T00:09:18.784Z,99242.12
2019-05-12T00:11:54.572Z,99236.55
2019-05-12T00:14:30.744Z,99237.66
2019-05-12T00:17:08.221Z,99237.91
2019-05-12T00:19:44.292Z,99240.73
2019-05-12T00:22:21.887Z,99237.84
2019-05-12T00:24:58.374Z,99239.32
2019-05-12T00:27:35.849Z,99234.95
2019-05-12T00:30:13.534Z,99228.63
2019-05-12T00:43:15.995Z,99211.31
2019-05-12T00:46:43.831Z,99214.59
2019-05-12T00:53:09.111Z,99230.14
2019-05-12T00:55:44.323Z,99237.55
2019-05-12T00:58:20.292Z,99239.87
2019-05-12T01:00:59.305Z,99241.58
2019-05-12T01:03:33.817Z,99242.16
2019-05-12T01:06:09.820Z,99240.69
2019-05-12T01:08:45.750Z,99251.88
2019-05-12T01:11:22.010Z,99251.03
2019-05-12T01:13:58.363Z,99251.39
2019-05-12T01:16:34.547Z,99251.53
2019-05-12T01:19:10.503Z,99259.89
2019-05-12T01:21:48.148Z,99266.22
2019-05-12T01:24:24.658Z,99266.95
2019-05-12T01:29:31.584Z,99273.63
2019-05-12T01:32:08.953Z,99273.99
2019-05-12T01:34:44.901Z,99279.69
2019-05-12T01:37:24.957Z,99281.17
2019-05-12T01:40:00.908Z,99277.63
2019-05-12T01:42:38.191Z,99271.68
2019-05-12T01:45:14.789Z,99276.78
2019-05-12T01:47:50.835Z,99273.38
2019-05-12T01:50:28.258Z,99281.14
2019-05-12T01:53:04.581Z,99285.50
2019-05-12T01:55:40.525Z,99283.67
2019-05-12T01:58:14.659Z,99286.59
2019-05-12T02:00:50.614Z,99286.20
2019-05-12T02:03:28.369Z,99294.45
2019-05-12T02:06:04.771Z,99290.31
2019-05-12T02:08:54.349Z,99283.02
2019-05-12T02:11:33.378Z,99283.13
2019-05-12T02:14:10.574Z,99273.43
2019-05-12T02:16:47.750Z,99276.45
2019-05-12T02:19:23.920Z,99284.81
2019-05-12T02:21:59.876Z,99286.63
2019-05-12T02:24:35.935Z,99293.05
2019-05-12T02:27:12.505Z,99295.83
2019-05-12T02:29:48.449Z,99293.16
2019-05-12T02:32:35.605Z,99302.14
2019-05-12T02:35:05.775Z,99300.66
2019-05-12T02:37:41.043Z,99303.69
2019-05-12T02:40:18.535Z,99309.90
2019-05-12T02:42:55.024Z,99320.09
2019-05-12T02:45:35.131Z,99323.77
2019-05-12T02:48:09.783Z,99334.10
2019-05-12T02:50:46.361Z,99330.46
2019-05-12T02:53:24.796Z,99328.67
2019-05-12T02:56:01.018Z,99329.52
2019-05-12T02:58:39.333Z,99332.44
2019-05-12T03:01:16.119Z,99339.02
2019-05-12T03:03:55.067Z,99343.23
2019-05-12T03:06:32.119Z,99339.22
2019-05-12T03:09:09.711Z,99349.45
2019-05-12T03:11:46.599Z,99360.59
2019-05-12T03:14:25.271Z,99367.06
2019-05-12T03:17:00.755Z,99373.25
2019-05-12T03:19:36.708Z,99365.38
2019-05-12T03:22:14.180Z,99361.33
2019-05-12T03:25:06.531Z,99361.16
2019-05-12T03:27:28.176Z,99361.24
2019-05-12T03:33:19.722Z,99383.75
2019-05-12T03:43:45.111Z,99375.48
2019-05-12T03:46:45.366Z,99374.66
2019-05-12T03:49:37.851Z,99383.69
2019-05-12T03:52:34.711Z,99378.68
2019-05-12T03:55:35.436Z,99378.73
2019-05-12T03:58:04.773Z,99389.02
2019-05-12T04:00:40.694Z,99389.17
2019-05-12T04:03:16.699Z,99392.57
2019-05-12T04:05:55.385Z,99395.49
2019-05-12T04:08:34.480Z,99397.34
2019-05-12T04:11:09.057Z,99400.58
2019-05-12T04:13:45.425Z,99409.13
2019-05-12T04:16:24.397Z,99419.11
2019-05-12T04:19:00.481Z,99415.85
2019-05-12T04:21:36.408Z,99432.88
2019-05-12T04:24:14.244Z,99433.12
2019-05-12T04:26:49.986Z,99437.90
2019-05-12T04:29:25.865Z,99442.27
2019-05-12T04:32:01.781Z,99446.11
2019-05-12T04:34:37.737Z,99457.55
2019-05-12T04:37:14.825Z,99466.17
2019-05-12T04:39:50.918Z,99470.38
2019-05-12T04:42:28.082Z,99473.94
2019-05-12T04:45:06.901Z,99472.44
2019-05-12T04:47:45.000Z,99470.60
2019-05-12T04:50:20.694Z,99474.93
2019-05-12T04:52:56.580Z,99475.16
2019-05-12T04:55:35.420Z,99488.53
2019-05-12T04:58:10.130Z,99496.38
2019-05-12T05:00:46.087Z,99497.95
2019-05-12T05:03:24.712Z,99504.98
2019-05-12T05:06:04.259Z,99514.55
2019-05-12T05:08:38.763Z,99511.69
2019-05-12T05:11:15.020Z,99520.10
2019-05-12T05:13:50.940Z,99522.64
2019-05-12T05:16:26.861Z,99524.10
2019-05-12T05:19:03.780Z,99519.67
2019-05-12T05:21:39.811Z,99523.31
2019-05-12T05:24:15.710Z,99544.03
2019-05-12T05:26:53.757Z,99543.70
2019-05-12T05:29:29.301Z,99554.06
2019-05-12T05:32:05.182Z,99575.32
2019-05-12T05:34:45.991Z,99601.95
2019-05-12T05:37:18.734Z,99632.30
2019-05-12T05:39:55.035Z,99640.13
2019-05-12T05:42:33.422Z,99638.03
2019-05-12T05:45:09.884Z,99623.89
2019-05-12T05:47:49.066Z,99600.28
2019-05-12T05:50:29.482Z,99601.34
2019-05-12T05:53:03.769Z,99616.77
2019-05-12T05:55:40.069Z,99632.34
2019-05-12T05:58:15.953Z,99634.06
2019-05-12T06:00:54.743Z,99627.92
2019-05-12T06:03:33.682Z,99629.17
2019-05-12T06:06:12.357Z,99632.98
2019-05-12T06:09:03.718Z,99637.92
2019-05-12T06:11:39.390Z,99645.35
2019-05-12T06:14:16.264Z,99646.11
2019-05-12T06:16:53.756Z,99654.95
2019-05-12T06:19:29.874Z,99656.63
2019-05-12T06:22:08.920Z,99652.27
2019-05-12T06:24:44.216Z,99657.51
2019-05-12T06:27:20.950Z,99662.11
2019-05-12T06:30:00.883Z,99670.07
2019-05-12T06:32:35.076Z,99667.97
2019-05-12T06:35:11.237Z,99669.98
2019-05-12T06:37:57.356Z,99667.34
2019-05-12T06:40:24.894Z,99673.23
2019-05-12T06:43:00.834Z,99679.77
2019-05-12T06:45:42.116Z,99699.58
2019-05-12T06:48:19.485Z,99698.09
2019-05-12T06:50:53.488Z,99707.34
2019-05-12T06:53:31.037Z,99705.78
2019-05-12T06:56:09.420Z,99717.05
2019-05-12T06:58:46.314Z,99725.48
2019-05-12T07:01:24.224Z,99735.62
2019-05-12T07:04:00.655Z,99739.63
2019-05-12T07:06:37.557Z,99749.13
2019-05-12T07:09:16.220Z,99761.05
2019-05-12T07:12:01.539Z,99765.89
2019-05-12T07:14:29.020Z,99758.98
2019-05-12T07:17:09.572Z,99784.47
2019-05-12T07:19:45.529Z,99782.83
2019-05-12T07:22:23.375Z,99797.60
2019-05-12T07:24:59.188Z,99800.59
2019-05-12T07:27:39.319Z,99806.30
2019-05-12T07:30:13.756Z,99802.01
2019-05-12T07:32:51.198Z,99806.72
2019-05-12T07:35:28.633Z,99812.63
2019-05-12T07:38:05.173Z,99818.45
2019-05-12T07:40:44.320Z,99823.91
2019-05-12T07:43:24.122Z,99832.79
2019-05-12T07:46:06.811Z,99833.59
2019-05-12T07:48:40.391Z,99836.98
2019-05-12T07:51:15.121Z,99833.84
2019-05-12T07:53:55.338Z,99842.66
2019-05-12T07:56:32.943Z,99852.08
2019-05-12T07:59:06.373Z,99839.28
2019-05-12T08:01:48.650Z,99852.42
2019-05-12T08:04:20.033Z,99846.52
2019-05-12T08:06:55.990Z,99848.80
2019-05-12T08:09:33.003Z,99864.38
2019-05-12T08:12:15.282Z,99860.16
2019-05-12T08:14:47.338Z,99870.55
2019-05-12T08:17:24.651Z,99858.19
2019-05-12T08:20:00.788Z,99870.45
2019-05-12T08:22:37.226Z,99881.45
2019-05-12T08:25:13.616Z,99872.43
2019-05-12T08:27:51.988Z,99879.91
2019-05-12T08:30:40.234Z,99878.48
2019-05-12T08:33:14.605Z,99887.41
2019-05-12T08:35:50.349Z,99885.52
2019-05-12T08:38:26.314Z,99891.39
2019-05-12T08:41:04.297Z,99899.19
2019-05-12T08:43:45.838Z,99904.58
2019-05-12T08:46:18.173Z,99915.05
2019-05-12T08:48:57.833Z,99911.75
2019-05-12T08:51:33.914Z,99914.50
2019-05-12T08:54:09.511Z,99936.05
2019-05-12T08:56:45.467Z,99934.16
2019-05-12T08:59:26.500Z,99937.05
2019-05-12T09:02:00.560Z,99940.31
2019-05-12T09:04:36.824Z,99937.83
2019-05-12T09:07:13.926Z,99964.14
2019-05-12T09:09:49.972Z,99974.34
2019-05-12T09:12:26.131Z,99973.91
2019-05-12T09:15:04.318Z,99981.17
2019-05-12T09:17:49.258Z,99983.63
2019-05-12T09:20:17.584Z,99991.97
2019-05-12T09:23:00.540Z,99985.17
2019-05-12T09:25:31.227Z,100001.09
2019-05-12T09:28:08.319Z,99990.90
2019-05-12T09:30:47.629Z,100001.20
2019-05-12T09:33:29.621Z,99993.45
2019-05-12T09:35:59.877Z,100008.53
2019-05-12T09:38:35.833Z,100011.28
2019-05-12T09:41:14.001Z,100009.67
2019-05-12T09:43:50.540Z,100018.66
2019-05-12T09:46:28.439Z,100013.44
2019-05-12T09:49:04.370Z,100023.80
2019-05-12T09:51:45.170Z,100018.74
2019-05-12T09:54:18.124Z,100032.97
2019-05-12T09:56:55.463Z,100034.61
2019-05-12T09:59:33.513Z,100039.77
2019-05-12T10:02:10.576Z,100035.17
2019-05-12T10:04:50.279Z,100041.24
2019-05-12T10:07:24.751Z,100048.52
2019-05-12T10:10:00.828Z,100054.71
2019-05-12T10:12:45.039Z,100046.75
2019-05-12T10:15:18.863Z,100042.84
2019-05-12T10:17:54.011Z,100054.33
2019-05-12T10:20:35.417Z,100054.45
2019-05-12T10:23:10.307Z,100057.84
2019-05-12T10:25:45.367Z,100055.79
2019-05-12T10:28:23.625Z,100062.20
2019-05-12T10:30:59.209Z,100062.52
2019-05-12T10:33:35.151Z,100071.59
2019-05-12T10:36:11.028Z,100064.78
2019-05-12T10:38:48.028Z,100074.39
2019-05-12T10:41:23.898Z,100072.21
2019-05-12T10:44:00.009Z,100091.85
2019-05-12T10:46:35.934Z,100087.62
2019-05-12T10:49:13.849Z,100093.09
2019-05-12T10:51:49.456Z,100091.13
2019-05-12T10:54:25.391Z,100111.84
2019-05-12T10:57:01.324Z,100117.47
2019-05-12T10:59:38.853Z,100127.55
2019-05-12T11:02:14.919Z,100133.16
2019-05-12T11:04:50.827Z,100123.71
2019-05-12T11:07:28.201Z,100123.71
2019-05-12T11:10:15.375Z,100125.13
2019-05-12T11:12:44.391Z,100128.48
2019-05-12T11:15:20.294Z,100140.69
2019-05-12T11:17:57.772Z,100143.73
2019-05-12T11:20:34.561Z,100145.69
2019-05-12T11:23:10.530Z,100153.28
2019-05-12T11:25:46.488Z,100148.73
2019-05-12T11:28:24.497Z,100149.14
2019-05-12T11:31:00.799Z,100157.71
2019-05-12T11:33:37.093Z,100165.69
2019-05-12T11:36:13.540Z,100164.20
2019-05-12T11:38:49.561Z,100170.37
2019-05-12T11:41:28.458Z,100173.05
2019-05-12T11:44:03.973Z,100183.69
2019-05-12T11:46:39.901Z,100177.33
2019-05-12T11:49:15.834Z,100185.17
2019-05-12T11:51:54.050Z,100187.36
2019-05-12T11:54:30.403Z,100190.80
2019-05-12T11:57:06.474Z,100206.44
2019-05-12T11:59:44.677Z,100202.13
2019-05-12T12:02:30.287Z,100205.11
2019-05-12T12:05:06.850Z,100206.17
2019-05-12T12:07:50.589Z,100205.96
2019-05-12T12:10:20.363Z,100205.55
2019-05-12T12:12:56.262Z,100224.02
2019-05-12T12:15:34.233Z,100207.13
2019-05-12T12:18:15.122Z,100220.73
2019-05-12T12:20:48.262Z,100233.37
2019-05-12T12:23:24.154Z,100235.72
2019-05-12T12:26:00.049Z,100234.34
2019-05-12T12:28:35.951Z,100247.90
2019-05-12T12:31:13.180Z,100241.67
2019-05-12T12:33:49.139Z,100251.29
2019-05-12T12:36:25.235Z,100259.95
2019-05-12T12:39:01.118Z,100256.67
2019-05-12T12:41:45.746Z,100273.89
2019-05-12T12:44:16.174Z,100261.35
2019-05-12T12:46:59.817Z,100273.25
2019-05-12T12:49:29.660Z,100283.56
2019-05-12T12:52:05.581Z,100286.73
2019-05-12T12:54:43.726Z,100288.29
2019-05-12T12:57:19.331Z,100288.53
2019-05-12T12:59:55.272Z,100301.25
2019-05-12T13:02:33.732Z,100303.30
2019-05-12T13:05:08.778Z,100308.81
2019-05-12T13:07:45.694Z,100306.37
2019-05-12T13:10:21.618Z,100311.56
2019-05-12T13:13:01.021Z,100323.70
2019-05-12T13:15:35.124Z,100327.35
2019-05-12T13:18:18.072Z,100331.13
2019-05-12T13:20:48.629Z,100333.14
2019-05-12T13:23:36.769Z,100330.16
2019-05-12T13:26:04.295Z,100332.52
2019-05-12T13:28:39.731Z,100337.18
2019-05-12T13:31:16.102Z,100341.19
2019-05-12T13:33:54.780Z,100339.86
2019-05-12T13:36:35.478Z,100343.93
2019-05-12T13:39:11.326Z,100344.31
2019-05-12T13:41:50.323Z,100345.11
2019-05-12T13:44:24.299Z,100346.91
2019-05-12T13:47:00.219Z,100356.59
2019-05-12T13:49:42.733Z,100359.53
2019-05-12T13:52:14.121Z,100354.46
2019-05-12T13:54:51.058Z,100353.99
2019-05-12T13:57:26.958Z,100365.70
2019-05-12T14:00:09.314Z,100367.17
2019-05-12T14:02:40.497Z,100370.73
2019-05-12T14:05:16.808Z,100379.79
2019-05-12T14:07:55.469Z,100379.37
2019-05-12T14:10:30.338Z,100382.36
2019-05-12T14:13:06.214Z,100381.84
2019-05-12T14:15:44.377Z,100374.78
2019-05-12T14:18:20.811Z,100380.75
2019-05-12T14:21:00.375Z,100385.41
2019-05-12T14:23:34.439Z,100375.12
2019-05-12T14:26:10.356Z,100393.59
2019-05-12T14:28:49.622Z,100390.52
2019-05-12T14:31:30.029Z,100394.69
2019-05-12T14:34:01.504Z,100397.63
2019-05-12T14:36:37.416Z,100395.64
2019-05-12T14:39:13.561Z,100401.14
2019-05-12T14:41:53.186Z,100398.43
2019-05-12T14:44:27.081Z,100396.95
2019-05-12T14:47:03.824Z,100402.27
2019-05-12T14:49:39.863Z,100403.27
2019-05-12T14:52:15.787Z,100410.42
2019-05-12T14:54:54.177Z,100415.55
2019-05-12T14:57:37.442Z,100416.41
2019-05-12T15:00:11.153Z,100422.05
2019-05-12T15:02:46.667Z,100422.80
2019-05-12T15:05:25.318Z,100418.16
2019-05-12T15:08:00.511Z,100428.02
2019-05-12T15:10:36.547Z,100446.28
2019-05-12T15:13:13.954Z,100445.42
2019-05-12T15:15:54.905Z,100444.63
2019-05-12T15:18:27.719Z,100454.52
2019-05-12T15:21:03.710Z,100455.52
2019-05-12T15:23:39.842Z,100466.53
2019-05-12T15:26:19.711Z,100465.77
2019-05-12T15:28:54.288Z,100476.91
2019-05-12T15:31:30.362Z,100468.75
2019-05-12T15:34:06.424Z,100476.05
2019-05-12T15:36:43.540Z,100476.11
2019-05-12T15:39:20.077Z,100480.75
2019-05-12T15:41:56.892Z,100488.86
2019-05-12T15:44:36.305Z,100492.52
2019-05-12T15:47:11.229Z,100494.70
2019-05-12T15:49:47.129Z,100489.80
2019-05-12T15:52:24.681Z,100496.55
2019-05-12T15:55:00.732Z,100505.75
2019-05-12T15:57:36.633Z,100507.13
2019-05-12T16:00:16.916Z,100505.47
2019-05-12T16:02:53.451Z,100515.48
2019-05-12T16:05:31.192Z,100521.02
2019-05-12T16:08:07.274Z,100517.38
2019-05-12T16:10:43.677Z,100519.80
2019-05-12T16:13:19.547Z,100525.39
2019-05-12T16:16:02.885Z,100521.73
2019-05-12T16:18:34.473Z,100528.91
2019-05-12T16:21:10.540Z,100532.17
2019-05-12T16:23:47.413Z,100536.16
2019-05-12T16:26:24.241Z,100538.41
2019-05-12T16:29:05.302Z,100535.41
2019-05-12T16:31:39.402Z,100542.39
2019-05-12T16:34:15.470Z,100547.04
2019-05-12T16:36:52.631Z,100551.83
2019-05-12T16:39:30.440Z,100544.66
2019-05-12T16:42:10.414Z,100542.00
2019-05-12T16:44:44.467Z,100565.78
2019-05-12T16:47:25.117Z,100554.34
2019-05-12T16:49:57.952Z,100564.78
2019-05-12T16:52:40.472Z,100558.47
2019-05-12T16:55:12.303Z,100571.09
2019-05-12T16:57:52.824Z,100562.22
2019-05-12T17:00:25.879Z,100562.94
2019-05-12T17:03:03.684Z,100567.59
2019-05-12T17:05:39.543Z,100564.59
2019-05-12T17:08:15.417Z,100570.72
2019-05-12T17:11:00.942Z,100567.11
2019-05-12T17:13:28.993Z,100571.24
2019-05-12T17:16:04.859Z,100575.23
2019-05-12T17:18:40.933Z,100571.95
2019-05-12T17:21:17.312Z,100579.73
2019-05-12T17:23:53.240Z,100577.59
2019-05-12T17:26:29.515Z,100588.17
2019-05-12T17:29:05.760Z,100588.31
2019-05-12T17:31:41.663Z,100590.55
2019-05-12T17:34:17.616Z,100593.20
2019-05-12T17:36:58.545Z,100603.40
2019-05-12T17:39:37.394Z,100605.84
2019-05-12T17:42:14.809Z,100605.17
2019-05-12T17:44:46.447Z,100607.78
2019-05-12T17:47:25.787Z,100612.30
2019-05-12T17:50:00.434Z,100611.77
2019-05-12T17:52:37.875Z,100617.42
2019-05-12T17:55:15.066Z,100625.39
2019-05-12T17:57:56.335Z,100632.09
2019-05-12T18:00:28.822Z,100633.84
2019-05-12T18:03:17.509Z,100638.20
2019-05-12T18:05:47.818Z,100647.50
2019-05-12T18:08:24.168Z,100652.09
2019-05-12T18:10:57.867Z,100656.08
2019-05-12T18:13:34.514Z,100653.08
2019-05-12T18:16:19.807Z,100659.20
2019-05-12T18:18:49.055Z,100664.38
2019-05-12T18:21:30.855Z,100659.07
2019-05-12T18:24:08.770Z,100659.53
2019-05-12T18:26:40.332Z,100668.94
2019-05-12T18:29:16.246Z,100673.27
2019-05-12T18:31:53.395Z,100679.05
2019-05-12T18:34:29.824Z,100673.21
2019-05-12T18:37:05.709Z,100673.34
2019-05-12T18:39:43.629Z,100680.03
2019-05-12T18:42:19.386Z,100683.09
2019-05-12T18:44:55.337Z,100695.44
2019-05-12T18:47:32.318Z,100694.83
2019-05-12T18:50:09.100Z,100698.05
2019-05-12T18:53:02.783Z,100700.27
2019-05-12T18:55:40.580Z,100706.79
2019-05-12T18:58:21.776Z,100710.17
2019-05-12T19:00:59.535Z,100707.52
2019-05-12T19:03:47.162Z,100708.89
2019-05-12T19:06:16.929Z,100718.45
2019-05-12T19:09:04.145Z,100717.77
2019-05-12T19:11:41.936Z,100718.11
2019-05-12T19:14:17.866Z,100723.98
2019-05-12T19:16:53.885Z,100724.92
2019-05-12T19:19:29.872Z,100730.45
2019-05-12T19:22:09.535Z,100739.23
2019-05-12T19:24:44.346Z,100736.84
2019-05-12T19:27:21.325Z,100743.09
2019-05-12T19:29:57.278Z,100743.05
2019-05-12T19:32:34.032Z,100739.70
2019-05-12T19:35:17.245Z,100740.09
2019-05-12T19:37:48.844Z,100728.78
2019-05-12T19:40:24.801Z,100730.58
2019-05-12T19:43:03.396Z,100727.88
2019-05-12T19:45:38.445Z,100734.56
2019-05-12T19:48:24.006Z,100733.83
2019-05-12T19:50:56.630Z,100738.10
2019-05-12T19:53:29.756Z,100740.97
2019-05-12T19:56:05.771Z,100740.80
2019-05-12T19:58:43.842Z,100749.77
2019-05-12T20:01:26.056Z,100744.74
2019-05-12T20:03:58.342Z,100745.43
2019-05-12T20:06:35.424Z,100743.84
2019-05-12T20:09:14.268Z,100754.08
2019-05-12T20:11:49.068Z,100749.91
2019-05-12T20:14:25.033Z,100757.33
2019-05-12T20:17:00.942Z,100756.16
2019-05-12T20:19:37.856Z,100760.41
2019-05-12T20:22:13.918Z,100754.20
2019-05-12T20:24:49.871Z,100754.55
2019-05-12T20:27:25.840Z,100747.56
2019-05-12T20:30:08.882Z,100742.25
2019-05-12T20:32:43.376Z,100745.03
2019-05-12T20:35:18.819Z,100754.41
2019-05-12T20:37:57.313Z,100755.86
2019-05-12T20:40:37.701Z,100755.86
2019-05-12T20:43:13.863Z,100757.48
2019-05-12T20:45:47.870Z,100755.86
2019-05-12T20:48:26.495Z,100751.24
2019-05-12T20:51:03.515Z,100749.09
2019-05-12T20:53:39.222Z,100753.16
2019-05-12T20:56:20.094Z,100757.61
2019-05-12T20:58:52.870Z,100760.66
2019-05-12T21:01:30.213Z,100765.66
2019-05-12T21:04:07.822Z,100774.60
2019-05-12T21:06:44.028Z,100770.45
2019-05-12T21:09:19.974Z,100777.09
2019-05-12T21:11:55.929Z,100774.39
2019-05-12T21:14:33.451Z,100777.45
2019-05-12T21:17:14.548Z,100776.28
2019-05-12T21:19:55.812Z,100779.48
2019-05-12T21:22:24.989Z,100781.01
2019-05-12T21:25:01.151Z,100779.84
2019-05-12T21:27:37.095Z,100781.64
2019-05-12T21:30:15.205Z,100776.09
2019-05-12T21:32:56.373Z,100772.47
2019-05-12T21:35:31.955Z,100779.91
2019-05-12T21:38:06.564Z,100776.37
2019-05-12T21:40:44.188Z,100781.88
2019-05-12T21:43:20.218Z,100776.37
2019-05-12T21:45:56.163Z,100781.28
2019-05-12T21:48:33.994Z,100778.40
2019-05-12T21:51:15.444Z,100778.44
2019-05-12T21:53:50.504Z,100783.70
2019-05-12T21:56:25.108Z,100788.90
2019-05-12T21:59:01.073Z,100787.22
2019-05-12T22:01:43.140Z,100791.91
2019-05-12T22:04:14.723Z,100791.31
2019-05-12T22:06:56.198Z,100786.75
2019-05-12T22:09:46.906Z,100790.27
2019-05-12T22:12:23.322Z,100788.28
2019-05-12T22:14:58.523Z,100793.97
2019-05-12T22:17:36.017Z,100796.63
2019-05-12T22:20:17.962Z,100798.42
2019-05-12T22:22:49.759Z,100801.47
2019-05-12T22:25:25.725Z,100805.05
2019-05-12T22:28:07.834Z,100805.45
2019-05-12T22:30:39.371Z,100803.73
2019-05-12T22:33:15.336Z,100795.38
2019-05-12T22:36:04.726Z,100805.06
2019-05-12T22:38:28.990Z,100795.42
2019-05-12T22:41:07.396Z,100796.44
2019-05-12T22:43:45.790Z,100805.68
2019-05-12T22:46:23.304Z,100809.03
2019-05-12T22:48:58.744Z,100806.37
2019-05-12T22:51:34.700Z,100806.73
2019-05-12T22:54:10.809Z,100809.03
2019-05-12T22:56:49.475Z,100817.93
2019-05-12T22:59:24.420Z,100815.72
2019-05-12T23:02:01.507Z,100829.87
2019-05-12T23:04:40.343Z,100833.03
2019-05-12T23:07:19.055Z,100825.97
2019-05-12T23:09:53.769Z,100829.20
2019-05-12T23:12:29.930Z,100836.66
2019-05-12T23:15:07.666Z,100838.89
2019-05-12T23:17:45.327Z,100842.83
2019-05-12T23:20:25.404Z,100841.66
2019-05-12T23:22:59.285Z,100837.74
2019-05-12T23:25:35.254Z,100838.64
2019-05-12T23:28:11.197Z,100845.74
2019-05-12T23:30:48.433Z,100854.20
2019-05-12T23:33:31.952Z,100858.08
2019-05-12T23:36:04.038Z,100859.94
2019-05-12T23:38:40.154Z,100858.08
2019-05-12T23:41:16.102Z,100854.07
2019-05-12T23:43:53.743Z,100857.44
2019-05-12T23:46:29.853Z,100857.83
2019-05-12T23:49:05.812Z,100855.61
2019-05-12T23:51:43.718Z,100855.75
2019-05-12T23:54:19.478Z,100860.09
2019-05-12T23:56:55.425Z,100852.12
2019-05-12T23:59:33.460Z,100855.50
